Time;durP1;ratioP1;P1;durP2;ratioP2;P2;SDS_P1;SDS_P2;PMS_P1;PMS_P2;Temp;Humidity;BMP_temperature;BMP_pressure;BME280_temperature;BME280_humidity;BME280_pressure;Samples;Min_cycle;Max_cycle;Signal;HPM_P1;HPM_P2
2022/01/02 00:00:19;;;;;;;191.90;177.32;;;10.70;99.90;;;;;;6128477;23;20149;-85
2022/01/02 00:03:06;;;;;;;236.85;221.02;;;10.70;99.90;;;;;;6101229;23;20201;-85
2022/01/02 00:05:35;;;;;;;205.65;191.00;;;10.70;99.90;;;;;;6127757;23;20242;-85
2022/01/02 00:08:10;;;;;;;209.57;194.82;;;10.60;99.90;;;;;;6102794;23;20647;-85
2022/01/02 00:10:43;;;;;;;204.88;190.20;;;10.60;99.90;;;;;;6101815;23;20265;-85
2022/01/02 00:13:22;;;;;;;195.20;180.90;;;10.60;99.90;;;;;;6128330;23;20127;-85
2022/01/02 00:15:51;;;;;;;168.68;155.15;;;10.70;99.90;;;;;;6128190;23;20127;-86
2022/01/02 00:18:17;;;;;;;178.50;164.18;;;10.60;99.90;;;;;;6127707;23;20139;-85
2022/01/02 00:20:48;;;;;;;182.10;167.82;;;10.60;99.90;;;;;;6128088;23;20170;-85
2022/01/02 00:23:21;;;;;;;184.38;170.25;;;10.70;99.90;;;;;;6128985;23;20134;-85
2022/01/02 00:25:52;;;;;;;166.98;153.52;;;10.70;99.90;;;;;;6127881;23;20135;-85
2022/01/02 00:28:18;;;;;;;198.73;184.23;;;10.70;99.90;;;;;;6102577;23;20161;-85
2022/01/02 00:30:46;;;;;;;198.03;183.27;;;10.80;99.90;;;;;;6127751;23;20501;-86
2022/01/02 00:33:12;;;;;;;189.35;175.13;;;10.80;1.00;;;;;;6128073;23;20374;-85
2022/01/02 00:35:38;;;;;;;198.43;184.23;;;10.70;99.90;;;;;;6101897;23;20151;-85
2022/01/02 00:38:05;;;;;;;178.13;163.85;;;10.80;99.90;;;;;;6101505;23;20383;-86
2022/01/02 00:40:40;;;;;;;197.75;183.05;;;10.70;99.90;;;;;;6101696;23;20228;-85
2022/01/02 00:43:08;;;;;;;216.85;201.90;;;10.80;99.90;;;;;;6127160;23;20141;-85
2022/01/02 00:45:48;;;;;;;218.82;203.55;;;10.90;99.90;;;;;;6125129;23;20473;-85
2022/01/02 00:48:22;;;;;;;224.65;209.10;;;10.90;99.90;;;;;;6124029;23;20135;-85
2022/01/02 01:01:57;;;;;;;230.02;214.40;;;10.70;99.90;;;;;;6073894;23;20167;-85
2022/01/02 01:09:21;;;;;;;216.50;201.38;;;10.80;99.90;;;;;;6070387;23;20261;-86
2022/01/02 01:15:35;;;;;;;212.32;196.75;;;10.60;99.90;;;;;;6034120;23;20211;-85
2022/01/02 01:21:57;;;;;;;229.48;214.07;;;10.60;99.90;;;;;;6116393;23;20151;-85
2022/01/02 01:32:22;;;;;;;172.70;159.10;;;10.60;99.90;;;;;;6072433;23;20179;-85
2022/01/02 01:35:23;;;;;;;199.38;185.00;;;10.60;99.90;;;;;;6028632;23;20178;-86
2022/01/02 01:48:01;;;;;;;184.70;170.73;;;10.70;99.90;;;;;;6128105;23;20170;-85
2022/01/02 01:54:52;;;;;;;187.57;172.98;;;10.60;99.90;;;;;;6040010;23;20180;-85
2022/01/02 01:57:34;;;;;;;;;;;;;;;;;;;;;
2022/01/02 02:00:55;;;;;;;197.50;182.70;;;10.70;99.90;;;;;;6040466;23;20673;-85
2022/01/02 02:07:36;;;;;;;;;;;;;;;;;;;;;
2022/01/02 02:16:38;;;;;;;246.23;229.75;;;10.60;1.00;;;;;;6117746;23;20147;-86
2022/01/02 02:19:31;;;;;;;235.00;219.13;;;10.60;1.00;;;;;;6102922;23;20185;-86
2022/01/02 02:22:32;;;;;;;229.98;214.57;;;10.60;99.90;;;;;;6104117;23;20150;-85
2022/01/02 02:25:14;;;;;;;249.57;233.65;;;10.60;1.00;;;;;;6100719;23;20224;-85
2022/01/02 02:28:10;;;;;;;207.95;192.95;;;10.60;1.00;;;;;;6099788;23;20162;-86
2022/01/02 02:30:45;;;;;;;205.18;190.30;;;10.60;1.00;;;;;;6053663;23;20151;-85
2022/01/02 02:33:15;;;;;;;194.43;179.93;;;10.60;76.60;;;;;;6094569;23;20154;-85
2022/01/02 02:35:54;;;;;;;188.18;174.02;;;10.70;99.90;;;;;;6104284;23;20157;-85
2022/01/02 02:38:38;;;;;;;206.40;191.48;;;10.70;99.90;;;;;;6129892;23;20129;-85
2022/01/02 02:41:16;;;;;;;229.80;214.45;;;10.80;99.90;;;;;;6103286;23;20151;-85
2022/01/02 02:44:34;;;;;;;223.15;207.65;;;10.70;99.90;;;;;;6104180;23;20175;-85
2022/01/02 02:50:16;;;;;;;236.68;220.85;;;10.70;99.90;;;;;;6129136;23;20170;-86
2022/01/02 02:53:41;;;;;;;;;;;;;;;;;;;;;
2022/01/02 03:03:09;;;;;;;196.68;182.10;;;10.60;99.90;;;;;;6092876;23;20531;-85
2022/01/02 03:06:12;;;;;;;176.48;162.77;;;10.60;99.90;;;;;;6128867;23;20476;-85
2022/01/02 03:09:08;;;;;;;216.68;201.82;;;10.70;99.90;;;;;;6103033;23;20173;-85
2022/01/02 03:12:03;;;;;;;218.85;203.43;;;10.70;99.90;;;;;;6066906;23;20243;-85
2022/01/02 03:18:25;;;;;;;223.57;207.45;;;10.70;99.90;;;;;;6130663;23;20267;-85
2022/01/02 03:27:56;;;;;;;266.05;249.50;;;10.70;23.10;;;;;;6040855;23;20159;-85
2022/01/02 03:30:39;;;;;;;245.90;229.50;;;10.60;99.90;;;;;;6017271;23;20149;-83
2022/01/02 03:34:14;;;;;;;232.60;216.27;;;10.60;99.90;;;;;;6103160;23;20606;-85
2022/01/02 03:37:27;;;;;;;;;;;;;;;;;;;;;
2022/01/02 03:40:58;;;;;;;224.35;209.02;;;10.60;99.90;;;;;;6027463;23;20168;-85
2022/01/02 03:44:22;;;;;;;200.50;185.98;;;10.70;99.90;;;;;;6090176;23;20154;-86
2022/01/02 03:47:07;;;;;;;208.70;193.82;;;10.70;99.90;;;;;;6070828;23;20152;-85
2022/01/02 03:49:57;;;;;;;197.13;182.20;;;10.60;99.90;;;;;;6089232;23;20156;-85
2022/01/02 03:55:53;;;;;;;213.85;198.55;;;10.60;99.90;;;;;;6108744;23;20663;-85
2022/01/02 03:59:08;;;;;;;202.77;187.57;;;10.60;99.90;;;;;;6104377;23;20238;-85
2022/01/02 04:08:54;;;;;;;187.57;173.00;;;10.50;99.90;;;;;;6110337;23;20182;-85
2022/01/02 04:15:07;;;;;;;;;;;;;;;;;;;;;
2022/01/02 04:18:01;;;;;;;211.02;196.02;;;10.50;1.00;;;;;;6128447;23;20158;-86
2022/01/02 04:21:14;;;;;;;212.30;197.15;;;10.50;12.90;;;;;;6102261;23;20174;-85
2022/01/02 04:24:00;;;;;;;173.73;159.68;;;10.50;40.30;;;;;;6089469;22;20536;-85
2022/01/02 04:27:23;;;;;;;;;;;;;;;;;;;;;
2022/01/02 04:30:27;;;;;;;190.18;175.65;;;10.40;99.90;;;;;;6038294;23;20196;-85
2022/01/02 04:33:21;;;;;;;204.82;189.55;;;10.40;99.90;;;;;;5994582;23;20153;-86
2022/01/02 04:36:18;;;;;;;;;;;;;;;;;;;;;
2022/01/02 04:39:10;;;;;;;223.73;207.27;;;10.40;99.90;;;;;;6097152;23;20206;-86
2022/01/02 04:41:58;;;;;;;186.20;171.60;;;10.40;99.90;;;;;;6097335;23;20167;-85
2022/01/02 04:44:42;;;;;;;204.00;188.70;;;10.40;99.90;;;;;;6071605;23;20178;-85
2022/01/02 04:57:42;;;;;;;189.05;174.38;;;10.50;99.90;;;;;;6006459;23;20150;-85
2022/01/02 05:00:50;;;;;;;182.48;167.77;;;10.50;99.90;;;;;;6153770;23;20643;-86
2022/01/02 05:03:41;;;;;;;167.27;153.38;;;10.50;99.90;;;;;;6135740;23;20242;-85
2022/01/02 05:07:06;;;;;;;193.10;178.07;;;10.50;99.90;;;;;;6098277;23;20155;-85
2022/01/02 05:09:15;;;;;;;221.13;205.70;;;10.40;99.90;;;;;;6103741;23;20174;-86
2022/01/02 05:12:09;;;;;;;219.93;204.52;;;10.30;99.90;;;;;;6097530;23;20232;-86
2022/01/02 05:14:45;;;;;;;224.43;209.00;;;10.40;99.90;;;;;;6099539;23;20186;-86
2022/01/02 05:17:36;;;;;;;246.98;230.75;;;10.40;99.90;;;;;;6098451;23;20151;-85
2022/01/02 05:20:11;;;;;;;264.58;246.98;;;10.40;99.90;;;;;;6069384;23;20155;-85
2022/01/02 05:23:22;;;;;;;;;;;;;;;;;;;;;
2022/01/02 05:26:49;;;;;;;226.55;210.90;;;10.40;99.90;;;;;;6014018;23;20184;-85
2022/01/02 05:32:13;;;;;;;248.80;231.68;;;10.40;99.90;;;;;;6096372;23;20170;-85
2022/01/02 05:35:15;;;;;;;266.70;249.30;;;10.40;99.90;;;;;;6097782;22;20217;-86
2022/01/02 05:38:25;;;;;;;;;;;;;;;;;;;;;
2022/01/02 05:41:27;;;;;;;238.80;222.05;;;10.40;99.90;;;;;;6126458;23;20647;-85
2022/01/02 05:48:12;;;;;;;;;;;;;;;;;;;;;
2022/01/02 05:51:24;;;;;;;275.80;258.38;;;10.20;99.90;;;;;;6048740;23;20253;-85
2022/01/02 05:54:26;;;;;;;275.25;257.67;;;10.30;99.90;;;;;;6037338;23;20168;-86
2022/01/02 05:57:14;;;;;;;269.23;252.13;;;10.20;99.90;;;;;;6100509;23;20146;-85
2022/01/02 06:00:11;;;;;;;262.15;245.43;;;10.20;99.90;;;;;;6100764;23;20152;-85
2022/01/02 06:02:56;;;;;;;274.67;257.63;;;10.20;99.90;;;;;;6101243;23;20157;-85
2022/01/02 06:05:54;;;;;;;255.15;238.07;;;10.20;99.90;;;;;;6100881;23;20258;-85
2022/01/02 06:11:52;;;;;;;252.15;235.73;;;10.20;99.90;;;;;;6082129;23;20175;-85
2022/01/02 06:14:40;;;;;;;263.90;247.10;;;10.30;99.90;;;;;;6100594;23;20253;-85
2022/01/02 06:17:35;;;;;;;251.73;235.00;;;10.30;99.90;;;;;;6100808;23;20159;-85
2022/01/02 06:20:18;;;;;;;206.02;191.18;;;10.20;99.90;;;;;;6101729;23;20167;-85
2022/01/02 06:23:16;;;;;;;213.98;199.02;;;10.20;99.90;;;;;;6127856;23;20131;-85
2022/01/02 06:26:31;;;;;;;177.95;163.50;;;10.20;99.90;;;;;;6127415;23;20154;-85
2022/01/02 06:29:32;;;;;;;180.23;166.18;;;10.30;99.90;;;;;;6034428;23;20207;-85
2022/01/02 06:32:55;;;;;;;;;;;;;;;;;;;;;
2022/01/02 06:36:11;;;;;;;195.38;181.18;;;10.40;99.90;;;;;;6126607;23;20210;-85
2022/01/02 06:38:52;;;;;;;208.05;192.60;;;10.40;99.90;;;;;;6008970;23;20154;-86
2022/01/02 06:41:58;;;;;;;172.40;158.75;;;10.40;99.90;;;;;;6031334;23;20583;-85
2022/01/02 06:44:34;;;;;;;214.32;198.85;;;10.40;99.90;;;;;;6031333;23;20175;-85
2022/01/02 06:47:14;;;;;;;194.63;180.23;;;10.40;99.90;;;;;;6013462;23;20148;-85
2022/01/02 06:52:41;;;;;;;236.05;220.55;;;10.40;99.90;;;;;;6042652;23;20198;-84
2022/01/02 06:55:07;;;;;;;235.43;219.43;;;10.40;99.90;;;;;;6102035;23;20208;-84
2022/01/02 06:57:33;;;;;;;196.43;181.50;;;10.30;99.90;;;;;;6127370;23;20207;-84
2022/01/02 06:59:58;;;;;;;231.93;216.33;;;10.40;99.90;;;;;;6128505;23;20163;-84
2022/01/02 07:02:24;;;;;;;244.53;228.57;;;10.40;99.90;;;;;;6128112;23;20147;-84
2022/01/02 07:04:50;;;;;;;208.33;193.57;;;10.40;99.90;;;;;;6128648;23;20185;-84
2022/01/02 07:07:15;;;;;;;262.63;245.93;;;10.40;99.90;;;;;;6101920;23;20588;-84
2022/01/02 07:09:41;;;;;;;267.53;250.07;;;10.40;99.90;;;;;;6127511;23;20579;-84
2022/01/02 07:12:07;;;;;;;250.43;234.30;;;10.50;99.90;;;;;;6102769;23;20201;-84
2022/01/02 07:14:42;;;;;;;263.80;246.93;;;10.50;99.90;;;;;;6103267;23;20171;-84
2022/01/02 07:17:08;;;;;;;245.13;229.00;;;10.50;99.90;;;;;;6128677;23;20519;-84
2022/01/02 07:19:34;;;;;;;246.80;230.73;;;10.40;99.90;;;;;;6103605;23;20181;-84
2022/01/02 07:22:00;;;;;;;236.67;220.57;;;10.40;99.90;;;;;;6128309;23;20883;-84
2022/01/02 07:24:26;;;;;;;241.35;225.32;;;10.30;99.90;;;;;;6102419;23;20468;-84
2022/01/02 07:26:53;;;;;;;256.85;240.05;;;10.40;99.90;;;;;;6102298;23;20228;-84
2022/01/02 07:29:19;;;;;;;267.67;250.65;;;10.40;99.90;;;;;;6101775;23;20150;-85
2022/01/02 07:31:45;;;;;;;253.47;237.07;;;10.40;99.90;;;;;;6127615;23;20546;-85
2022/01/02 07:34:10;;;;;;;264.77;248.00;;;10.40;99.90;;;;;;6128118;23;20386;-85
2022/01/02 07:36:39;;;;;;;243.60;226.83;;;10.40;99.90;;;;;;6128430;23;20371;-84
2022/01/02 07:39:06;;;;;;;227.40;211.98;;;10.30;99.90;;;;;;6128108;23;20368;-85
2022/01/02 07:41:32;;;;;;;215.52;200.43;;;10.30;99.90;;;;;;6104262;23;20193;-85
2022/01/02 07:43:58;;;;;;;222.82;207.32;;;10.40;99.90;;;;;;6128925;23;20170;-85
2022/01/02 07:46:24;;;;;;;272.75;255.70;;;10.50;99.90;;;;;;6129453;23;20146;-85
2022/01/02 07:48:52;;;;;;;262.30;245.68;;;10.40;99.90;;;;;;6128611;23;20465;-85
2022/01/02 07:51:17;;;;;;;265.08;248.38;;;10.40;99.90;;;;;;6128497;23;20249;-85
2022/01/02 07:53:43;;;;;;;234.93;219.27;;;10.40;99.90;;;;;;6102516;23;20186;-85
2022/01/02 07:56:10;;;;;;;245.63;229.37;;;10.40;99.90;;;;;;6129049;23;20364;-85
2022/01/02 07:58:36;;;;;;;291.90;274.23;;;10.40;99.90;;;;;;6104731;23;20172;-84
2022/01/02 08:01:01;;;;;;;297.00;278.80;;;10.40;99.90;;;;;;6133186;23;20142;-84
2022/01/02 08:03:27;;;;;;;290.17;272.07;;;10.40;99.90;;;;;;6130497;23;20246;-85
2022/01/02 08:05:53;;;;;;;255.87;238.93;;;10.40;99.90;;;;;;6128331;23;20241;-85
2022/01/02 08:08:18;;;;;;;269.70;253.00;;;10.40;99.90;;;;;;6128129;23;20464;-85
2022/01/02 08:10:44;;;;;;;273.97;256.83;;;10.40;99.90;;;;;;6103323;23;20238;-85
2022/01/02 08:13:10;;;;;;;249.43;233.37;;;10.40;99.90;;;;;;6104311;23;20154;-85
2022/01/02 08:15:35;;;;;;;262.87;245.60;;;10.40;99.90;;;;;;6101554;23;20579;-85
2022/01/02 08:18:01;;;;;;;289.60;271.47;;;10.50;99.90;;;;;;6128335;23;20540;-85
2022/01/02 08:20:27;;;;;;;238.93;223.23;;;10.50;99.90;;;;;;6128370;23;20143;-85
2022/01/02 08:22:53;;;;;;;241.50;225.45;;;10.50;99.90;;;;;;6102806;23;20170;-85
2022/01/02 08:25:19;;;;;;;238.40;222.40;;;10.50;99.90;;;;;;6101750;23;20546;-85
2022/01/02 08:27:44;;;;;;;244.50;228.23;;;10.50;99.90;;;;;;6128506;23;20153;-85
2022/01/02 08:30:10;;;;;;;210.40;195.37;;;10.50;99.90;;;;;;6101415;23;20451;-85
2022/01/02 08:32:38;;;;;;;201.60;186.83;;;10.50;99.90;;;;;;6100159;23;20238;-85
2022/01/02 08:35:05;;;;;;;193.90;178.93;;;10.50;99.90;;;;;;6101167;23;20426;-85
2022/01/02 08:37:31;;;;;;;186.35;171.48;;;10.50;99.90;;;;;;6101866;23;20198;-85
2022/01/02 08:39:56;;;;;;;212.43;196.83;;;10.50;99.90;;;;;;6101628;23;20158;-85
2022/01/02 08:42:22;;;;;;;225.30;209.63;;;10.40;99.90;;;;;;6101637;23;20378;-85
2022/01/02 08:44:48;;;;;;;201.17;186.33;;;10.40;99.90;;;;;;6100130;23;20497;-85
2022/01/02 08:47:13;;;;;;;168.70;155.20;;;10.40;99.90;;;;;;6103150;23;20155;-85
2022/01/02 08:49:39;;;;;;;140.80;128.20;;;10.50;99.90;;;;;;6130433;23;20150;-85
2022/01/02 08:52:05;;;;;;;142.70;129.90;;;10.50;99.90;;;;;;6103940;23;20341;-85
2022/01/02 08:54:34;;;;;;;139.20;126.83;;;10.50;99.90;;;;;;6130436;23;20241;-85
2022/01/02 08:57:04;;;;;;;153.50;140.60;;;10.60;99.90;;;;;;6105267;23;20158;-85
2022/01/02 08:59:29;;;;;;;138.40;126.13;;;10.60;99.90;;;;;;6103068;23;20181;-85
2022/01/02 09:01:56;;;;;;;150.03;137.43;;;10.60;99.90;;;;;;6101126;23;20383;-85
2022/01/02 09:04:22;;;;;;;175.50;161.27;;;10.60;99.90;;;;;;6100122;23;20284;-85
2022/01/02 09:06:48;;;;;;;189.43;175.55;;;10.60;99.90;;;;;;6124720;23;20147;-85
2022/01/02 09:09:13;;;;;;;206.33;191.57;;;10.60;99.90;;;;;;6125874;23;20481;-85
2022/01/02 09:11:39;;;;;;;252.00;235.73;;;10.70;99.90;;;;;;6126501;23;20784;-85
2022/01/02 09:14:05;;;;;;;226.30;211.07;;;10.70;99.90;;;;;;6124845;23;20183;-85
2022/01/02 09:16:31;;;;;;;191.60;177.13;;;10.80;99.90;;;;;;6125668;23;20446;-85
2022/01/02 09:18:57;;;;;;;207.10;192.55;;;10.80;99.90;;;;;;6129953;23;20143;-85
2022/01/02 09:21:26;;;;;;;204.20;189.57;;;10.70;99.90;;;;;;6130143;23;20179;-85
2022/01/02 09:23:54;;;;;;;200.20;185.65;;;10.70;99.90;;;;;;6103923;23;20627;-85
2022/01/02 09:26:20;;;;;;;165.05;151.73;;;10.70;99.90;;;;;;6125905;23;20580;-85
2022/01/02 09:28:46;;;;;;;133.40;120.97;;;10.80;99.90;;;;;;6125666;23;20177;-85
2022/01/02 09:31:14;;;;;;;141.97;128.73;;;10.80;99.90;;;;;;6100113;23;20644;-85
2022/01/02 09:33:40;;;;;;;212.95;197.90;;;10.80;99.90;;;;;;6125797;23;20216;-85
2022/01/02 09:36:06;;;;;;;148.37;135.53;;;10.90;99.90;;;;;;6099344;23;20633;-85
2022/01/02 09:38:31;;;;;;;98.90;76.40;;;11.00;99.90;;;;;;6125802;23;20131;-85
2022/01/02 09:40:59;;;;;;;93.43;49.60;;;11.00;99.90;;;;;;6125089;23;20197;-84
2022/01/02 09:43:26;;;;;;;91.45;65.95;;;11.20;99.90;;;;;;6126228;23;20154;-85
2022/01/02 09:45:52;;;;;;;122.22;109.75;;;11.30;99.90;;;;;;6102837;23;20272;-85
2022/01/02 09:48:21;;;;;;;160.25;146.43;;;11.40;99.90;;;;;;6098493;23;20158;-85
2022/01/02 09:50:47;;;;;;;107.78;96.28;;;11.50;99.90;;;;;;6098379;23;20155;-85
2022/01/02 09:53:13;;;;;;;93.90;71.97;;;11.60;99.90;;;;;;6124969;23;20593;-85
2022/01/02 09:55:42;;;;;;;88.95;57.00;;;11.70;99.90;;;;;;6099959;23;20154;-85
2022/01/02 09:58:12;;;;;;;93.78;67.95;;;11.80;99.90;;;;;;6124847;23;20192;-85
2022/01/02 10:00:40;;;;;;;82.72;39.08;;;11.80;99.90;;;;;;6099147;23;20214;-86
2022/01/02 10:03:09;;;;;;;90.50;58.33;;;11.90;99.90;;;;;;6124445;23;20192;-85
2022/01/02 10:05:59;;;;;;;83.00;33.72;;;12.00;99.90;;;;;;6124448;23;20143;-85
2022/01/02 10:08:26;;;;;;;76.55;24.38;;;12.00;99.90;;;;;;6124363;23;20134;-85
2022/01/02 10:11:08;;;;;;;75.85;24.75;;;12.00;99.90;;;;;;6125655;23;20139;-85
2022/01/02 10:13:38;;;;;;;78.55;25.25;;;12.00;1.00;;;;;;6101075;23;20254;-85
2022/01/02 10:16:08;;;;;;;80.55;27.48;;;12.00;1.00;;;;;;6100259;23;20230;-85
2022/01/02 10:18:34;;;;;;;79.97;26.35;;;12.00;1.00;;;;;;6124149;23;20158;-85
2022/01/02 10:21:03;;;;;;;79.83;31.93;;;12.10;99.90;;;;;;6123840;23;20143;-85
2022/01/02 10:23:29;;;;;;;82.07;41.22;;;12.10;99.90;;;;;;6097818;23;20217;-85
2022/01/02 10:25:57;;;;;;;78.45;29.33;;;12.20;1.00;;;;;;6127986;23;20150;-85
2022/01/02 10:28:36;;;;;;;76.53;24.88;;;12.30;1.00;;;;;;6126824;23;20147;-84
2022/01/02 10:31:10;;;;;;;75.68;24.83;;;12.30;1.00;;;;;;6127914;23;20158;-84
2022/01/02 10:33:57;;;;;;;75.90;22.10;;;12.40;1.00;;;;;;6130355;23;20161;-84
2022/01/02 10:36:33;;;;;;;76.47;24.88;;;12.40;1.00;;;;;;6108288;23;20147;-85
2022/01/02 10:38:58;;;;;;;78.82;30.77;;;12.50;1.00;;;;;;6133148;23;20138;-85
2022/01/02 10:41:29;;;;;;;88.67;56.17;;;12.60;99.90;;;;;;6106041;23;20603;-85
2022/01/02 10:43:54;;;;;;;94.68;78.82;;;12.70;99.90;;;;;;6131966;23;20162;-84
2022/01/02 10:46:20;;;;;;;94.65;62.10;;;12.80;99.90;;;;;;6131151;23;20406;-85
2022/01/02 10:48:45;;;;;;;128.87;116.77;;;12.90;99.90;;;;;;6131618;23;20158;-85
2022/01/02 10:51:17;;;;;;;124.80;112.77;;;13.10;99.90;;;;;;6130484;23;20174;-85
2022/01/02 10:53:56;;;;;;;125.38;113.25;;;13.10;99.90;;;;;;6105429;23;20245;-85
2022/01/02 10:56:23;;;;;;;126.00;114.10;;;13.20;99.90;;;;;;6106095;23;20157;-85
2022/01/02 10:58:49;;;;;;;128.40;116.30;;;13.20;99.90;;;;;;6106416;23;20181;-85
2022/01/02 11:01:15;;;;;;;110.27;99.03;;;13.30;99.90;;;;;;6106980;23;20150;-85
2022/01/02 11:03:44;;;;;;;98.73;83.10;;;13.30;99.90;;;;;;6129655;23;20390;-85
2022/01/02 11:06:13;;;;;;;97.43;86.63;;;13.40;99.90;;;;;;6128500;23;20142;-85
2022/01/02 11:08:43;;;;;;;96.38;73.97;;;13.50;91.10;;;;;;6129208;23;20170;-85
2022/01/02 11:11:09;;;;;;;95.72;82.93;;;13.50;84.40;;;;;;6129004;23;20236;-85
2022/01/02 11:13:35;;;;;;;98.60;87.17;;;13.60;75.80;;;;;;6128860;23;20155;-85
2022/01/02 11:16:04;;;;;;;93.32;67.63;;;13.70;74.50;;;;;;6100691;23;20157;-85
2022/01/02 11:18:34;;;;;;;80.37;37.13;;;13.80;64.60;;;;;;6127602;23;20161;-85
2022/01/02 11:21:01;;;;;;;88.40;47.15;;;13.80;69.50;;;;;;6102793;23;20405;-85
2022/01/02 11:23:55;;;;;;;95.38;67.32;;;13.80;58.80;;;;;;6127083;23;20170;-85
2022/01/02 11:26:34;;;;;;;97.70;78.45;;;13.80;66.00;;;;;;6127870;23;20135;-85
2022/01/02 11:29:00;;;;;;;101.95;87.32;;;13.80;75.80;;;;;;6127599;23;20131;-85
2022/01/02 11:31:34;;;;;;;93.75;74.50;;;13.80;60.60;;;;;;6126228;23;20173;-85
2022/01/02 11:34:00;;;;;;;94.03;77.77;;;13.80;64.10;;;;;;6102945;23;20221;-85
2022/01/02 11:36:33;;;;;;;99.60;77.63;;;13.90;71.90;;;;;;6102179;23;20425;-85
2022/01/02 11:39:13;;;;;;;103.05;92.05;;;13.90;69.10;;;;;;6126977;23;20127;-85
2022/01/02 11:41:47;;;;;;;100.07;77.63;;;13.90;65.50;;;;;;6102091;23;20151;-85
2022/01/02 11:44:21;;;;;;;99.07;82.57;;;13.90;63.70;;;;;;6126569;23;20394;-85
2022/01/02 11:46:54;;;;;;;89.43;64.60;;;13.90;52.90;;;;;;6126708;23;20146;-85
2022/01/02 11:49:49;;;;;;;84.50;47.15;;;13.90;54.40;;;;;;6100548;23;20608;-85
2022/01/02 11:52:26;;;;;;;82.88;39.08;;;13.90;35.50;;;;;;6099477;23;20301;-85
2022/01/02 11:55:17;;;;;;;88.28;45.05;;;13.90;36.60;;;;;;6123581;23;20173;-85
2022/01/02 11:57:44;;;;;;;93.05;56.60;;;13.80;38.00;;;;;;6125009;23;20213;-85
2022/01/02 12:00:33;;;;;;;85.25;46.05;;;13.80;42.10;;;;;;6099552;23;20150;-85
2022/01/02 12:02:58;;;;;;;105.63;79.45;;;13.80;36.70;;;;;;6127597;23;20181;-86
2022/01/02 12:05:24;;;;;;;86.23;50.67;;;13.70;27.30;;;;;;6126816;23;20162;-85
2022/01/02 12:07:52;;;;;;;92.73;66.13;;;13.70;37.30;;;;;;6126811;23;20497;-85
2022/01/02 12:10:38;;;;;;;92.60;62.53;;;13.70;32.90;;;;;;6124491;23;20653;-85
2022/01/02 12:13:09;;;;;;;89.57;63.70;;;13.70;43.90;;;;;;6074405;23;20627;-84
2022/01/02 12:15:41;;;;;;;86.00;46.97;;;13.70;36.20;;;;;;6097281;23;20182;-85
2022/01/02 12:18:09;;;;;;;83.60;43.67;;;13.60;23.10;;;;;;6122913;23;20507;-85
2022/01/02 12:20:53;;;;;;;83.88;47.63;;;13.60;35.10;;;;;;6096988;23;20151;-85
2022/01/02 12:23:40;;;;;;;101.28;82.75;;;13.60;29.60;;;;;;6097983;23;20579;-86
2022/01/02 12:26:12;;;;;;;104.00;92.97;;;13.60;49.90;;;;;;6098733;23;20149;-85
2022/01/02 12:28:57;;;;;;;98.30;85.40;;;13.60;37.90;;;;;;6097254;23;20171;-85
2022/01/02 12:31:29;;;;;;;92.55;61.03;;;13.60;38.70;;;;;;6097405;23;20174;-85
2022/01/02 12:34:19;;;;;;;97.03;62.28;;;13.60;49.30;;;;;;6122675;23;20170;-85
2022/01/02 12:36:50;;;;;;;96.28;59.55;;;13.60;50.10;;;;;;6124173;23;20181;-84
2022/01/02 12:39:52;;;;;;;111.28;99.78;;;13.50;65.00;;;;;;6124747;23;20149;-84
2022/01/02 12:42:20;;;;;;;94.97;77.60;;;13.50;80.20;;;;;;6096752;23;20196;-84
2022/01/02 12:44:50;;;;;;;114.47;102.95;;;13.50;99.90;;;;;;6098604;23;20250;-84
2022/01/02 12:47:17;;;;;;;93.28;72.93;;;13.50;99.90;;;;;;6097519;23;20653;-85
2022/01/02 12:49:44;;;;;;;96.55;82.70;;;13.50;99.90;;;;;;6096928;23;20201;-85
2022/01/02 12:55:03;;;;;;;83.65;38.20;;;13.60;99.90;;;;;;6114597;23;20209;-88
2022/01/02 12:58:24;;;;;;;;;;;;;;;;;;;;;
2022/01/02 13:01:22;;;;;;;81.10;31.13;;;13.60;99.90;;;;;;6115946;23;20222;-88
2022/01/02 13:07:48;;;;;;;92.22;42.63;;;13.60;99.90;;;;;;5949175;24;20151;-88
2022/01/02 13:10:52;;;;;;;;;;;;;;;;;;;;;
2022/01/02 13:23:35;;;;;;;78.57;30.27;;;13.60;99.90;;;;;;6123005;23;20151;-88
2022/01/02 13:26:46;;;;;;;81.50;37.58;;;13.50;99.90;;;;;;6009250;23;20159;-88
2022/01/02 13:32:53;;;;;;;;;;;;;;;;;;;;;
2022/01/02 13:36:50;;;;;;;85.07;50.97;;;13.50;1.00;;;;;;6004440;23;20254;-88
2022/01/02 13:40:10;;;;;;;99.25;81.35;;;13.50;99.90;;;;;;5889114;24;20152;-88
2022/01/02 13:46:59;;;;;;;;;;;;;;;;;;;;;
2022/01/02 13:55:52;;;;;;;92.53;72.13;;;13.60;99.90;;;;;;6118476;23;20222;-88
2022/01/02 14:08:37;;;;;;;;;;;;;;;;;;;;;
2022/01/02 14:12:22;;;;;;;89.88;65.35;;;13.50;99.90;;;;;;6123362;23;20218;-88
2022/01/02 14:29:14;;;;;;;116.38;104.80;;;13.50;99.90;;;;;;6154780;23;20149;-88
2022/01/02 15:06:33;;;;;;;;;;;;;;;;;;;;;
2022/01/02 15:09:05;;;;;;;118.65;107.07;;;13.50;1.00;;;;;;6106984;23;20214;-88
2022/01/02 15:14:39;;;;;;;160.50;146.90;;;13.40;1.00;;;;;;6130981;23;20263;-88
2022/01/02 15:17:45;;;;;;;160.07;146.98;;;13.40;1.00;;;;;;6098113;23;20228;-88
2022/01/02 15:20:35;;;;;;;157.10;143.93;;;13.40;2.60;;;;;;6120829;23;20142;-88
2022/01/02 15:23:56;;;;;;;142.13;129.35;;;13.40;43.10;;;;;;6122894;23;20149;-88
2022/01/02 15:26:49;;;;;;;140.88;128.55;;;13.40;10.30;;;;;;6094084;23;20139;-88
2022/01/02 15:29:52;;;;;;;141.65;129.25;;;13.40;47.20;;;;;;6058866;23;20158;-88
2022/01/02 15:44:32;;;;;;;162.50;148.98;;;13.20;67.00;;;;;;6107549;23;20290;-88
2022/01/02 15:47:04;;;;;;;146.65;134.00;;;13.20;75.30;;;;;;6121259;23;20158;-88
2022/01/02 15:50:40;;;;;;;160.10;147.18;;;13.20;96.90;;;;;;6061589;23;20148;-88
2022/01/02 15:55:59;;;;;;;161.40;148.35;;;13.10;99.90;;;;;;6064200;23;20183;-88
2022/01/02 15:59:13;;;;;;;154.15;141.35;;;13.10;99.90;;;;;;6064872;23;20143;-88
2022/01/02 16:01:39;;;;;;;143.35;130.88;;;13.00;99.90;;;;;;6078885;23;20155;-88
2022/01/02 16:17:35;;;;;;;128.40;116.38;;;12.90;99.90;;;;;;6119467;23;20195;-88
2022/01/02 16:20:28;;;;;;;108.00;97.07;;;12.90;99.90;;;;;;6122577;23;20143;-88
2022/01/02 16:23:38;;;;;;;132.88;120.93;;;12.80;99.90;;;;;;6063922;23;20485;-88
2022/01/02 16:59:16;;;;;;;91.90;64.40;;;12.60;99.90;;;;;;6122721;23;20162;-88
2022/01/02 17:02:03;;;;;;;98.70;84.10;;;12.60;99.90;;;;;;6092116;23;20637;-88
2022/01/02 17:11:21;;;;;;;95.10;81.65;;;12.60;99.90;;;;;;6122434;23;20178;-87
2022/01/02 17:20:40;;;;;;;88.03;50.13;;;12.50;99.90;;;;;;6151770;23;20676;-87
2022/01/02 17:26:10;;;;;;;98.43;87.28;;;12.50;99.90;;;;;;6119590;23;20659;-86
2022/01/02 17:29:16;;;;;;;;;;;;;;;;;;;;;
2022/01/02 17:32:07;;;;;;;100.47;89.30;;;12.50;99.90;;;;;;6098707;23;20257;-87
2022/01/02 17:35:25;;;;;;;99.53;88.10;;;12.50;99.90;;;;;;6122753;23;20173;-86
2022/01/02 17:38:37;;;;;;;107.53;96.13;;;12.40;99.90;;;;;;6116067;23;20154;-87
2022/01/02 17:41:35;;;;;;;;;;;;;;;;;;;;;
2022/01/02 17:47:11;;;;;;;124.70;113.13;;;12.50;99.90;;;;;;6092156;23;20525;-87
2022/01/02 17:49:55;;;;;;;154.90;141.73;;;12.50;99.90;;;;;;6096639;23;20151;-87
2022/01/02 17:52:53;;;;;;;128.88;116.78;;;12.50;99.90;;;;;;6123244;23;20177;-87
2022/01/02 17:55:26;;;;;;;147.60;134.65;;;12.50;99.90;;;;;;6095365;23;20505;-87
2022/01/02 17:58:22;;;;;;;135.95;123.95;;;12.50;99.90;;;;;;6094052;23;20150;-86
2022/01/02 18:04:51;;;;;;;95.53;62.45;;;12.50;99.90;;;;;;6094703;23;20178;-87
2022/01/02 18:07:36;;;;;;;;;;;;;;;;;;;;;
2022/01/02 18:10:11;;;;;;;88.03;50.90;;;12.40;99.90;;;;;;6100584;23;20152;-86
2022/01/02 18:12:41;;;;;;;224.68;208.38;;;12.40;99.90;;;;;;6096859;23;20249;-86
2022/01/02 18:15:59;;;;;;;222.45;206.30;;;12.20;99.90;;;;;;6074160;23;20175;-87
2022/01/02 18:19:24;;;;;;;184.77;170.75;;;12.10;99.90;;;;;;6047583;23;20206;-88
2022/01/02 18:22:15;;;;;;;173.13;159.57;;;12.00;99.90;;;;;;6093250;23;20152;-88
2022/01/02 18:24:57;;;;;;;142.90;130.18;;;11.80;99.90;;;;;;6102208;23;20194;-87
2022/01/02 18:27:22;;;;;;;129.70;117.38;;;11.70;99.90;;;;;;6102307;23;20643;-88
2022/01/02 18:30:47;;;;;;;129.67;117.43;;;11.60;99.90;;;;;;6101838;23;20144;-88
2022/01/02 18:34:01;;;;;;;169.48;155.43;;;11.60;99.90;;;;;;6013342;23;20256;-88
2022/01/02 18:36:53;;;;;;;177.98;163.75;;;11.60;99.90;;;;;;6014715;23;20149;-89